Jersey, Georgia
Current Conditions -  °F | °C
As of 8:35 PM on Monday 22 Dec 2014 (Local Time) from KCVC Reporting Station
Light Rain Light Rain  
Wind Chill: 39°   Ceiling: 3300
Heat Index: 45°   Visibility: 10mi
Dew Point: 43°   Wind: 12mph
Humidity: 93%   Direction: 80°E
Pressure: 29.94"   Gusts: NA
Location:  33.72°N, 83.8°W
Report Text: KCVC 230135Z AUTO 08010KT 10SM -RA SCT005 BKN033 OVC055 07/06 A2994 RMK AO2
Loading
Personal Weather Stations






























Interactive Weather Map New forecast layout! Learn more

10-Day Weather Forecast

Advertisements
Track Severe Weather on mobile